Flugplatz Mengen-Hohentengen

Für EDTM sind keine METAR/TAF Berichte vorhanden.
Es werden die Flugwettermeldungen vom Flugplatz Friedrichshafen in 43 km Entfernung angezeigt.

Bericht für EDNY

vom 01.12. um 08:20 UTC

Wind 12 kt aus 220°

Sichtweite 10 km oder mehr

gering bewölkt in 2900 ft

Temperatur 6.0°C

Taupunkt 2.0°C

Luftfeuchtigkeit 75%

Luftdruck 1008 hPa

EDNY 010820Z 22012KT 9999 FEW029 06/02 Q1008

Prognose für EDNY

vom 01.12. um 05:00 UTC

Zwischen 06:00 UTC und 06:00 UTC

Wind 11 kt aus 240°

Sichtweite 10 km oder mehr

aufgelockert bewölkt in 3000 ft

aufgebrochene Bewölkung in 4500 ft


Zwischen 15:00 UTC und 21:00 UTC zeitweise mit einer Wahrscheinlichkeit von 30%

Regen


Zwischen 15:00 UTC und 00:00 UTC zeitweise

Wind 15 kt aus 250° in Böen 25 kt

TAF EDNY 010500Z 0106/0206 24011KT 9999 SCT030 BKN045 TEMPO 0115/0124 25015G25KT PROB30 TEMPO 0115/0121 RA
Impressum